This is the latest recevied weather packets stored in our database for station/object HG8GL-6. If no packets are shown the sender has not sent any weather packets the latest 10 day(s).
| Time | Temp. | Humidity | Pressure | Rain* | Wind** | Luminosity | Snow |
|---|---|---|---|---|---|---|---|
| 1778130620 | 16.11° C | 86% | 1013 hPa | 0 mm | - | - | - |
| 1778129990 | 16.11° C | 86% | 1013 hPa | 0 mm | - | - | - |
| 1778129360 | 16.11° C | 86% | 1013 hPa | 0 mm | - | - | - |
| 1778128730 | 16.11° C | 85% | 1013 hPa | 0 mm | - | - | - |
| 1778128100 | 16.11° C | 85% | 1013 hPa | 0 mm | - | - | - |
| 1778127470 | 16.11° C | 85% | 1013 hPa | 0 mm | - | - | - |
| 1778126870 | 16.11° C | 84% | 1012 hPa | 0 mm | - | - | - |
| 1778126240 | 16.11° C | 83% | 1012 hPa | 0 mm | - | - | - |
| 1778105959 | 18.33° C | 63% | 1012 hPa | 0 mm | - | - | - |
| 1778105359 | 18.33° C | 64% | 1012 hPa | 0 mm | - | - | - |
| 1778103499 | 18.89° C | 60% | 1011 hPa | 0 mm | - | - | - |
| 1778101639 | 19.44° C | 57% | 1011 hPa | 0 mm | - | - | - |
| 1778099179 | 19.44° C | 54% | 1011 hPa | 0 mm | - | - | - |
| 1778098549 | 18.89° C | 56% | 1011 hPa | 0 mm | - | - | - |
| 1778097949 | 17.78° C | 56% | 1010 hPa | 0 mm | - | - | - |
| 1778096149 | 17.78° C | 50% | 1010 hPa | 0 mm | - | - | - |
| 1778095549 | 18.33° C | 49% | 1010 hPa | 0 mm | - | - | - |
| 1778094949 | 18.33° C | 49% | 1010 hPa | 0 mm | - | - | - |
| 1778093719 | 18.89° C | 48% | 1010.8 hPa | 0 mm | - | - | - |
| 1778092489 | 19.44° C | 45% | 1010 hPa | 0 mm | - | - | - |
| 1778091258 | 20.56° C | 42% | 1010 hPa | 0 mm | - | - | - |
| 1778074608 | 27.22° C | 33% | 1010 hPa | 0 mm | - | - | - |
| 1778073378 | 26.67° C | 33% | 1010 hPa | 0 mm | - | - | - |
| 1778072778 | 26.11° C | 33% | 1011 hPa | 0 mm | - | - | - |
| 1778072148 | 26.67° C | 33% | 1011.2 hPa | 0 mm | - | - | - |
* Rain latest hour (hover to see other rain measurements)
** Current wind speed in m/s (hover to see current wind gust speed)